sensor_id;sensor_type;location;lat;lon;timestamp;pressure;altitude;pressure_sealevel;temperature;humidity
51849;BME280;38952;51.090;-1.832;2024-02-21T00:01:15;100746.47;;;9.50;100.00
51849;BME280;38952;51.090;-1.832;2024-02-21T00:03:41;100738.53;;;9.49;100.00
51849;BME280;38952;51.090;-1.832;2024-02-21T00:06:07;100750.47;;;9.65;100.00
51849;BME280;38952;51.090;-1.832;2024-02-21T00:08:35;100740.75;;;9.52;100.00
51849;BME280;38952;51.090;-1.832;2024-02-21T00:14:43;100698.84;;;9.24;100.00
51849;BME280;38952;51.090;-1.832;2024-02-21T00:17:29;100690.28;;;9.15;100.00
51849;BME280;38952;51.090;-1.832;2024-02-21T00:20:00;100716.13;;;9.30;100.00
51849;BME280;38952;51.090;-1.832;2024-02-21T00:22:52;100729.63;;;9.36;100.00
51849;BME280;38952;51.090;-1.832;2024-02-21T00:25:17;100718.34;;;9.33;100.00
51849;BME280;38952;51.090;-1.832;2024-02-21T00:27:43;100715.56;;;9.28;100.00
51849;BME280;38952;51.090;-1.832;2024-02-21T00:30:09;100720.28;;;9.32;100.00
51849;BME280;38952;51.090;-1.832;2024-02-21T00:32:42;100686.16;;;9.13;100.00
51849;BME280;38952;51.090;-1.832;2024-02-21T00:35:08;100684.66;;;9.05;100.00
51849;BME280;38952;51.090;-1.832;2024-02-21T00:37:36;100666.25;;;8.95;100.00
51849;BME280;38952;51.090;-1.832;2024-02-21T00:40:04;100653.34;;;8.90;100.00
51849;BME280;38952;51.090;-1.832;2024-02-21T00:46:44;100699.06;;;9.17;100.00
51849;BME280;38952;51.090;-1.832;2024-02-21T00:49:12;100682.34;;;9.14;100.00
51849;BME280;38952;51.090;-1.832;2024-02-21T00:51:38;100661.94;;;8.99;100.00
51849;BME280;38952;51.090;-1.832;2024-02-21T00:54:03;100632.03;;;8.87;100.00
51849;BME280;38952;51.090;-1.832;2024-02-21T00:56:29;100659.53;;;9.03;100.00
51849;BME280;38952;51.090;-1.832;2024-02-21T00:58:55;100649.63;;;8.97;100.00
51849;BME280;38952;51.090;-1.832;2024-02-21T01:01:25;100623.44;;;8.79;100.00
51849;BME280;38952;51.090;-1.832;2024-02-21T01:04:30;100602.78;;;8.66;100.00
51849;BME280;38952;51.090;-1.832;2024-02-21T01:06:56;100603.19;;;8.74;100.00
51849;BME280;38952;51.090;-1.832;2024-02-21T01:09:21;100570.06;;;8.66;100.00
51849;BME280;38952;51.090;-1.832;2024-02-21T01:11:52;100603.44;;;8.73;100.00
51849;BME280;38952;51.090;-1.832;2024-02-21T01:14:46;100587.69;;;8.75;100.00
51849;BME280;38952;51.090;-1.832;2024-02-21T01:17:14;100609.72;;;8.90;100.00
51849;BME280;38952;51.090;-1.832;2024-02-21T01:19:44;100568.00;;;8.73;100.00
51849;BME280;38952;51.090;-1.832;2024-02-21T01:22:10;100592.63;;;8.95;100.00
51849;BME280;38952;51.090;-1.832;2024-02-21T01:24:40;100561.56;;;8.79;100.00
51849;BME280;38952;51.090;-1.832;2024-02-21T01:27:29;100534.63;;;8.66;100.00
51849;BME280;38952;51.090;-1.832;2024-02-21T01:29:55;100540.75;;;8.73;100.00
51849;BME280;38952;51.090;-1.832;2024-02-21T01:32:21;100565.09;;;8.97;100.00
51849;BME280;38952;51.090;-1.832;2024-02-21T01:34:49;100570.94;;;9.05;100.00
51849;BME280;38952;51.090;-1.832;2024-02-21T01:37:14;100573.16;;;9.08;100.00
51849;BME280;38952;51.090;-1.832;2024-02-21T01:39:40;100555.63;;;9.04;100.00
51849;BME280;38952;51.090;-1.832;2024-02-21T01:42:05;100561.47;;;9.13;100.00
51849;BME280;38952;51.090;-1.832;2024-02-21T01:44:31;100531.75;;;8.95;100.00
51849;BME280;38952;51.090;-1.832;2024-02-21T01:46:57;100519.72;;;8.90;100.00
51849;BME280;38952;51.090;-1.832;2024-02-21T01:49:28;100488.88;;;8.68;100.00
51849;BME280;38952;51.090;-1.832;2024-02-21T01:55:04;100519.44;;;8.70;100.00
51849;BME280;38952;51.090;-1.832;2024-02-21T01:57:47;100495.13;;;8.46;100.00
51849;BME280;38952;51.090;-1.832;2024-02-21T02:00:43;100466.47;;;8.27;100.00
51849;BME280;38952;51.090;-1.832;2024-02-21T02:03:25;100462.59;;;8.23;100.00
51849;BME280;38952;51.090;-1.832;2024-02-21T02:05:53;100466.47;;;8.27;100.00
51849;BME280;38952;51.090;-1.832;2024-02-21T02:08:20;100495.59;;;8.43;100.00
51849;BME280;38952;51.090;-1.832;2024-02-21T02:10:47;100477.69;;;8.30;100.00
51849;BME280;38952;51.090;-1.832;2024-02-21T02:13:13;100437.91;;;8.12;100.00
51849;BME280;38952;51.090;-1.832;2024-02-21T02:15:42;100481.31;;;8.36;100.00
51849;BME280;38952;51.090;-1.832;2024-02-21T02:18:09;100457.28;;;8.16;100.00
51849;BME280;38952;51.090;-1.832;2024-02-21T02:20:45;100431.16;;;7.98;100.00
51849;BME280;38952;51.090;-1.832;2024-02-21T02:29:40;100471.22;;;8.36;100.00
51849;BME280;38952;51.090;-1.832;2024-02-21T02:32:15;100412.66;;;8.00;100.00
51849;BME280;38952;51.090;-1.832;2024-02-21T02:34:41;100462.41;;;8.29;100.00
51849;BME280;38952;51.090;-1.832;2024-02-21T02:37:06;100480.00;;;8.38;100.00
51849;BME280;38952;51.090;-1.832;2024-02-21T02:39:35;100429.16;;;8.10;100.00
51849;BME280;38952;51.090;-1.832;2024-02-21T02:42:01;100443.81;;;8.26;100.00
51849;BME280;38952;51.090;-1.832;2024-02-21T02:44:27;100411.00;;;8.16;100.00
51849;BME280;38952;51.090;-1.832;2024-02-21T02:46:52;100415.69;;;8.20;100.00
51849;BME280;38952;51.090;-1.832;2024-02-21T02:49:18;100440.19;;;8.37;100.00
51849;BME280;38952;51.090;-1.832;2024-02-21T02:51:43;100428.88;;;8.29;100.00
51849;BME280;38952;51.090;-1.832;2024-02-21T02:54:15;100395.75;;;8.15;100.00
51849;BME280;38952;51.090;-1.832;2024-02-21T02:57:01;100372.72;;;8.06;100.00
51849;BME280;38952;51.090;-1.832;2024-02-21T03:03:10;100408.88;;;8.40;100.00
51849;BME280;38952;51.090;-1.832;2024-02-21T03:05:38;100364.38;;;8.12;100.00
51849;BME280;38952;51.090;-1.832;2024-02-21T03:08:22;100403.00;;;8.48;100.00
51849;BME280;38952;51.090;-1.832;2024-02-21T03:10:48;100370.03;;;8.28;100.00
51849;BME280;38952;51.090;-1.832;2024-02-21T03:13:13;100375.34;;;8.39;100.00
51849;BME280;38952;51.090;-1.832;2024-02-21T03:15:39;100388.91;;;8.51;100.00
51849;BME280;38952;51.090;-1.832;2024-02-21T03:18:04;100341.78;;;8.34;100.00
51849;BME280;38952;51.090;-1.832;2024-02-21T03:20:30;100375.59;;;8.55;100.00
51849;BME280;38952;51.090;-1.832;2024-02-21T03:22:55;100369.63;;;8.58;100.00
51849;BME280;38952;51.090;-1.832;2024-02-21T03:25:21;100354.59;;;8.55;100.00
51849;BME280;38952;51.090;-1.832;2024-02-21T03:27:46;100361.78;;;8.62;100.00
51849;BME280;38952;51.090;-1.832;2024-02-21T03:30:12;100332.06;;;8.43;100.00
51849;BME280;38952;51.090;-1.832;2024-02-21T03:32:38;100317.31;;;8.39;100.00
51849;BME280;38952;51.090;-1.832;2024-02-21T03:35:12;100299.50;;;8.31;100.00
51849;BME280;38952;51.090;-1.832;2024-02-21T03:44:05;100315.00;;;8.48;100.00
51849;BME280;38952;51.090;-1.832;2024-02-21T03:46:48;100296.03;;;8.36;100.00
51849;BME280;38952;51.090;-1.832;2024-02-21T03:49:13;100258.78;;;8.19;100.00
51849;BME280;38952;51.090;-1.832;2024-02-21T03:51:39;100296.88;;;8.59;100.00
51849;BME280;38952;51.090;-1.832;2024-02-21T03:54:04;100286.53;;;8.61;100.00
51849;BME280;38952;51.090;-1.832;2024-02-21T03:56:30;100284.34;;;8.63;100.00
51849;BME280;38952;51.090;-1.832;2024-02-21T03:58:55;100277.56;;;8.65;100.00
51849;BME280;38952;51.090;-1.832;2024-02-21T04:01:21;100256.00;;;8.59;100.00
51849;BME280;38952;51.090;-1.832;2024-02-21T04:03:51;100266.16;;;8.68;100.00
51849;BME280;38952;51.090;-1.832;2024-02-21T04:06:19;100223.66;;;8.45;100.00
51849;BME280;38952;51.090;-1.832;2024-02-21T04:08:49;100247.31;;;8.67;100.00
51849;BME280;38952;51.090;-1.832;2024-02-21T04:11:15;100206.31;;;8.51;100.00
51849;BME280;38952;51.090;-1.832;2024-02-21T04:13:40;100223.38;;;8.69;100.00
51849;BME280;38952;51.090;-1.832;2024-02-21T04:16:19;100198.69;;;8.53;100.00
51849;BME280;38952;51.090;-1.832;2024-02-21T04:19:05;100179.88;;;8.52;100.00
51849;BME280;38952;51.090;-1.832;2024-02-21T04:21:48;100208.69;;;8.75;100.00
51849;BME280;38952;51.090;-1.832;2024-02-21T04:24:24;100140.28;;;8.44;100.00
51849;BME280;38952;51.090;-1.832;2024-02-21T04:27:32;100173.19;;;8.70;100.00
51849;BME280;38952;51.090;-1.832;2024-02-21T04:29:58;100151.81;;;8.51;100.00
51849;BME280;38952;51.090;-1.832;2024-02-21T04:32:23;100173.44;;;8.63;100.00
51849;BME280;38952;51.090;-1.832;2024-02-21T04:34:49;100169.56;;;8.59;100.00
51849;BME280;38952;51.090;-1.832;2024-02-21T04:37:15;100143.72;;;8.39;100.00
51849;BME280;38952;51.090;-1.832;2024-02-21T04:39:40;100164.91;;;8.54;100.00
51849;BME280;38952;51.090;-1.832;2024-02-21T04:42:06;100141.28;;;8.38;100.00
51849;BME280;38952;51.090;-1.832;2024-02-21T04:44:31;100142.63;;;8.35;100.00
51849;BME280;38952;51.090;-1.832;2024-02-21T04:46:56;100128.34;;;8.23;100.00
51849;BME280;38952;51.090;-1.832;2024-02-21T04:49:22;100117.16;;;8.19;100.00
51849;BME280;38952;51.090;-1.832;2024-02-21T04:51:50;100120.75;;;8.25;100.00
51849;BME280;38952;51.090;-1.832;2024-02-21T04:54:23;100133.88;;;8.33;100.00
51849;BME280;38952;51.090;-1.832;2024-02-21T04:57:06;100110.38;;;8.22;100.00
51849;BME280;38952;51.090;-1.832;2024-02-21T04:59:48;100104.13;;;8.27;100.00
51849;BME280;38952;51.090;-1.832;2024-02-21T05:02:44;100089.06;;;8.19;100.00
51849;BME280;38952;51.090;-1.832;2024-02-21T05:05:16;100058.72;;;8.05;100.00
51849;BME280;38952;51.090;-1.832;2024-02-21T05:08:04;100088.34;;;8.29;100.00
51849;BME280;38952;51.090;-1.832;2024-02-21T05:10:40;100025.97;;;8.00;100.00
51849;BME280;38952;51.090;-1.832;2024-02-21T05:13:13;100053.31;;;8.10;100.00
51849;BME280;38952;51.090;-1.832;2024-02-21T05:15:39;100053.88;;;8.12;100.00
51849;BME280;38952;51.090;-1.832;2024-02-21T05:18:04;100059.69;;;8.21;100.00
51849;BME280;38952;51.090;-1.832;2024-02-21T05:20:30;100060.47;;;8.16;100.00
51849;BME280;38952;51.090;-1.832;2024-02-21T05:22:55;100068.97;;;8.25;100.00
51849;BME280;38952;51.090;-1.832;2024-02-21T05:25:20;100005.84;;;8.01;100.00
51849;BME280;38952;51.090;-1.832;2024-02-21T05:27:46;100038.78;;;8.32;100.00
51849;BME280;38952;51.090;-1.832;2024-02-21T05:30:16;100027.28;;;8.25;100.00
51849;BME280;38952;51.090;-1.832;2024-02-21T05:32:44;100050.19;;;8.29;100.00
51849;BME280;38952;51.090;-1.832;2024-02-21T05:38:12;99979.75;;;8.05;100.00
51849;BME280;38952;51.090;-1.832;2024-02-21T05:40:40;99943.13;;;7.91;100.00
51849;BME280;38952;51.090;-1.832;2024-02-21T05:43:19;100002.81;;;8.30;100.00
51849;BME280;38952;51.090;-1.832;2024-02-21T05:45:44;99965.88;;;8.07;100.00
51849;BME280;38952;51.090;-1.832;2024-02-21T05:48:10;99996.78;;;8.28;100.00
51849;BME280;38952;51.090;-1.832;2024-02-21T05:50:44;99973.31;;;8.21;100.00
51849;BME280;38952;51.090;-1.832;2024-02-21T05:53:10;99955.25;;;8.10;100.00
51849;BME280;38952;51.090;-1.832;2024-02-21T05:55:38;99930.22;;;8.08;100.00
51849;BME280;38952;51.090;-1.832;2024-02-21T05:58:09;99946.09;;;8.21;100.00
51849;BME280;38952;51.090;-1.832;2024-02-21T06:00:39;99951.00;;;8.25;100.00
51849;BME280;38952;51.090;-1.832;2024-02-21T06:03:07;99949.94;;;8.31;100.00
51849;BME280;38952;51.090;-1.832;2024-02-21T06:05:37;99921.56;;;8.16;100.00
51849;BME280;38952;51.090;-1.832;2024-02-21T06:08:04;99919.91;;;8.15;100.00
51849;BME280;38952;51.090;-1.832;2024-02-21T06:10:32;99937.13;;;8.26;100.00
51849;BME280;38952;51.090;-1.832;2024-02-21T06:12:57;99923.78;;;8.25;100.00
51849;BME280;38952;51.090;-1.832;2024-02-21T06:15:22;99910.66;;;8.16;100.00
51849;BME280;38952;51.090;-1.832;2024-02-21T06:17:48;99911.78;;;8.26;100.00
51849;BME280;38952;51.090;-1.832;2024-02-21T06:20:16;99907.44;;;8.25;100.00
51849;BME280;38952;51.090;-1.832;2024-02-21T06:22:44;99890.50;;;8.17;100.00
51849;BME280;38952;51.090;-1.832;2024-02-21T06:25:09;99905.81;;;8.24;100.00
51849;BME280;38952;51.090;-1.832;2024-02-21T06:27:35;99912.59;;;8.26;100.00
51849;BME280;38952;51.090;-1.832;2024-02-21T06:30:00;99889.47;;;8.24;100.00
51849;BME280;38952;51.090;-1.832;2024-02-21T06:32:26;99899.81;;;8.27;100.00
51849;BME280;38952;51.090;-1.832;2024-02-21T06:34:51;99869.22;;;8.14;100.00
51849;BME280;38952;51.090;-1.832;2024-02-21T06:37:17;99869.75;;;8.11;100.00
51849;BME280;38952;51.090;-1.832;2024-02-21T06:39:42;99858.06;;;8.11;100.00
51849;BME280;38952;51.090;-1.832;2024-02-21T06:42:08;99875.81;;;8.18;100.00
51849;BME280;38952;51.090;-1.832;2024-02-21T06:44:33;99855.28;;;8.06;100.00
51849;BME280;38952;51.090;-1.832;2024-02-21T06:47:08;99861.31;;;8.13;100.00
51849;BME280;38952;51.090;-1.832;2024-02-21T06:49:34;99855.06;;;8.12;100.00
51849;BME280;38952;51.090;-1.832;2024-02-21T06:51:59;99847.44;;;8.14;100.00
51849;BME280;38952;51.090;-1.832;2024-02-21T06:54:25;99860.25;;;8.19;100.00
51849;BME280;38952;51.090;-1.832;2024-02-21T06:56:50;99854.53;;;8.15;100.00
51849;BME280;38952;51.090;-1.832;2024-02-21T06:59:16;99845.03;;;8.23;100.00
51849;BME280;38952;51.090;-1.832;2024-02-21T07:01:46;99833.28;;;8.12;100.00
51849;BME280;38952;51.090;-1.832;2024-02-21T07:04:12;99819.38;;;8.09;100.00
51849;BME280;38952;51.090;-1.832;2024-02-21T07:06:40;99822.38;;;8.12;100.00
51849;BME280;38952;51.090;-1.832;2024-02-21T07:09:05;99824.59;;;8.15;100.00
51849;BME280;38952;51.090;-1.832;2024-02-21T07:14:33;99804.41;;;8.11;100.00
51849;BME280;38952;51.090;-1.832;2024-02-21T07:17:09;99779.88;;;8.06;100.00
51849;BME280;38952;51.090;-1.832;2024-02-21T07:19:34;99781.53;;;8.12;100.00
51849;BME280;38952;51.090;-1.832;2024-02-21T07:22:03;99764.03;;;8.03;100.00
51849;BME280;38952;51.090;-1.832;2024-02-21T07:24:28;99771.75;;;8.16;100.00
51849;BME280;38952;51.090;-1.832;2024-02-21T07:26:54;99769.56;;;8.13;100.00
51849;BME280;38952;51.090;-1.832;2024-02-21T07:29:21;99779.94;;;8.21;100.00
51849;BME280;38952;51.090;-1.832;2024-02-21T07:31:49;99744.75;;;8.04;100.00
51849;BME280;38952;51.090;-1.832;2024-02-21T07:34:17;99749.41;;;8.14;100.00
51849;BME280;38952;51.090;-1.832;2024-02-21T07:36:42;99739.03;;;8.11;100.00
51849;BME280;38952;51.090;-1.832;2024-02-21T07:39:08;99744.78;;;8.15;100.00
51849;BME280;38952;51.090;-1.832;2024-02-21T07:41:33;99736.88;;;8.13;100.00
51849;BME280;38952;51.090;-1.832;2024-02-21T07:43:59;99749.13;;;8.16;100.00
51849;BME280;38952;51.090;-1.832;2024-02-21T07:46:25;99740.69;;;8.12;100.00
51849;BME280;38952;51.090;-1.832;2024-02-21T07:48:53;99727.88;;;8.08;100.00
51849;BME280;38952;51.090;-1.832;2024-02-21T07:51:18;99724.31;;;8.07;100.00
51849;BME280;38952;51.090;-1.832;2024-02-21T07:53:47;99715.09;;;8.18;100.00
51849;BME280;38952;51.090;-1.832;2024-02-21T07:56:15;99707.16;;;8.12;100.00
51849;BME280;38952;51.090;-1.832;2024-02-21T07:58:42;99703.09;;;8.09;100.00
51849;BME280;38952;51.090;-1.832;2024-02-21T08:01:08;99697.38;;;8.11;100.00
51849;BME280;38952;51.090;-1.832;2024-02-21T08:03:34;99698.47;;;8.10;100.00
51849;BME280;38952;51.090;-1.832;2024-02-21T08:06:00;99688.91;;;8.02;100.00
51849;BME280;38952;51.090;-1.832;2024-02-21T08:08:25;99706.66;;;8.15;100.00
51849;BME280;38952;51.090;-1.832;2024-02-21T08:10:51;99715.91;;;8.14;100.00
51849;BME280;38952;51.090;-1.832;2024-02-21T08:13:17;99693.28;;;8.08;100.00
51849;BME280;38952;51.090;-1.832;2024-02-21T08:15:46;99675.31;;;8.02;100.00
51849;BME280;38952;51.090;-1.832;2024-02-21T08:18:11;99701.44;;;8.08;100.00
51849;BME280;38952;51.090;-1.832;2024-02-21T08:20:38;99686.72;;;8.04;100.00
51849;BME280;38952;51.090;-1.832;2024-02-21T08:23:03;99683.75;;;8.00;100.00
51849;BME280;38952;51.090;-1.832;2024-02-21T08:25:29;99670.41;;;7.99;100.00
51849;BME280;38952;51.090;-1.832;2024-02-21T08:27:58;99667.94;;;7.97;100.00
51849;BME280;38952;51.090;-1.832;2024-02-21T08:30:24;99658.91;;;7.86;100.00
51849;BME280;38952;51.090;-1.832;2024-02-21T08:32:49;99657.84;;;7.98;100.00
51849;BME280;38952;51.090;-1.832;2024-02-21T08:35:15;99664.94;;;7.99;100.00
51849;BME280;38952;51.090;-1.832;2024-02-21T08:37:43;99637.72;;;7.99;100.00
51849;BME280;38952;51.090;-1.832;2024-02-21T08:40:09;99635.28;;;7.97;100.00
51849;BME280;38952;51.090;-1.832;2024-02-21T08:42:35;99636.06;;;8.03;100.00
51849;BME280;38952;51.090;-1.832;2024-02-21T08:45:02;99625.44;;;8.01;100.00
51849;BME280;38952;51.090;-1.832;2024-02-21T08:47:28;99633.38;;;8.08;100.00
51849;BME280;38952;51.090;-1.832;2024-02-21T08:49:53;99603.44;;;8.13;100.00
51849;BME280;38952;51.090;-1.832;2024-02-21T08:52:20;99607.81;;;8.19;100.00
51849;BME280;38952;51.090;-1.832;2024-02-21T08:54:45;99599.09;;;8.23;100.00
51849;BME280;38952;51.090;-1.832;2024-02-21T08:57:10;99571.84;;;8.23;100.00
51849;BME280;38952;51.090;-1.832;2024-02-21T08:59:36;99567.50;;;8.21;100.00
51849;BME280;38952;51.090;-1.832;2024-02-21T09:02:02;99568.56;;;8.20;100.00
51849;BME280;38952;51.090;-1.832;2024-02-21T09:04:28;99553.88;;;8.16;100.00
51849;BME280;38952;51.090;-1.832;2024-02-21T09:06:54;99560.41;;;8.20;100.00
51849;BME280;38952;51.090;-1.832;2024-02-21T09:09:20;99545.72;;;8.16;100.00
51849;BME280;38952;51.090;-1.832;2024-02-21T09:11:45;99538.59;;;8.10;100.00
51849;BME280;38952;51.090;-1.832;2024-02-21T09:14:11;99533.16;;;8.05;100.00
51849;BME280;38952;51.090;-1.832;2024-02-21T09:16:37;99521.72;;;8.08;100.00
51849;BME280;38952;51.090;-1.832;2024-02-21T09:19:02;99532.09;;;8.11;100.00
51849;BME280;38952;51.090;-1.832;2024-02-21T09:21:28;99526.09;;;8.14;100.00
51849;BME280;38952;51.090;-1.832;2024-02-21T09:23:53;99527.72;;;8.15;100.00
51849;BME280;38952;51.090;-1.832;2024-02-21T09:26:19;99505.94;;;8.15;100.00
51849;BME280;38952;51.090;-1.832;2024-02-21T09:28:46;99496.16;;;8.19;100.00
51849;BME280;38952;51.090;-1.832;2024-02-21T09:31:12;99482.53;;;8.19;100.00
51849;BME280;38952;51.090;-1.832;2024-02-21T09:33:37;99484.69;;;8.23;100.00
51849;BME280;38952;51.090;-1.832;2024-02-21T09:36:03;99470.00;;;8.24;100.00
51849;BME280;38952;51.090;-1.832;2024-02-21T09:38:31;99469.44;;;8.27;100.00
51849;BME280;38952;51.090;-1.832;2024-02-21T09:41:08;99441.13;;;8.23;100.00
51849;BME280;38952;51.090;-1.832;2024-02-21T09:43:39;99450.94;;;8.24;100.00
51849;BME280;38952;51.090;-1.832;2024-02-21T09:46:05;99435.41;;;8.24;100.00
51849;BME280;38952;51.090;-1.832;2024-02-21T09:48:42;99441.94;;;8.23;100.00
51849;BME280;38952;51.090;-1.832;2024-02-21T09:51:14;99419.59;;;8.26;100.00
51849;BME280;38952;51.090;-1.832;2024-02-21T09:53:40;99416.31;;;8.29;100.00
51849;BME280;38952;51.090;-1.832;2024-02-21T09:56:10;99420.38;;;8.42;100.00
51849;BME280;38952;51.090;-1.832;2024-02-21T09:58:36;99411.41;;;8.36;100.00
51849;BME280;38952;51.090;-1.832;2024-02-21T10:01:02;99413.31;;;8.41;100.00
51849;BME280;38952;51.090;-1.832;2024-02-21T10:03:32;99410.06;;;8.44;100.00
51849;BME280;38952;51.090;-1.832;2024-02-21T10:05:58;99385.53;;;8.44;100.00
51849;BME280;38952;51.090;-1.832;2024-02-21T10:08:26;99412.22;;;8.47;100.00
51849;BME280;38952;51.090;-1.832;2024-02-21T10:10:52;99394.25;;;8.41;100.00
51849;BME280;38952;51.090;-1.832;2024-02-21T10:13:28;99383.34;;;8.41;100.00
51849;BME280;38952;51.090;-1.832;2024-02-21T10:16:05;99394.25;;;8.46;100.00
51849;BME280;38952;51.090;-1.832;2024-02-21T10:18:30;99368.38;;;8.38;100.00
51849;BME280;38952;51.090;-1.832;2024-02-21T10:21:00;99362.34;;;8.42;100.00
51849;BME280;38952;51.090;-1.832;2024-02-21T10:23:26;99369.72;;;8.46;100.00
51849;BME280;38952;51.090;-1.832;2024-02-21T10:25:51;99361.28;;;8.48;100.00
51849;BME280;38952;51.090;-1.832;2024-02-21T10:28:17;99352.81;;;8.49;100.00
51849;BME280;38952;51.090;-1.832;2024-02-21T10:30:51;99352.81;;;8.49;100.00
51849;BME280;38952;51.090;-1.832;2024-02-21T10:33:19;99326.09;;;8.56;100.00
51849;BME280;38952;51.090;-1.832;2024-02-21T10:35:50;99322.28;;;8.52;100.00
51849;BME280;38952;51.090;-1.832;2024-02-21T10:38:16;99323.88;;;8.64;100.00
51849;BME280;38952;51.090;-1.832;2024-02-21T10:40:42;99362.31;;;8.62;100.00
51849;BME280;38952;51.090;-1.832;2024-02-21T10:43:12;99320.34;;;8.63;100.00
51849;BME280;38952;51.090;-1.832;2024-02-21T10:45:38;99304.56;;;8.60;100.00
51849;BME280;38952;51.090;-1.832;2024-02-21T10:48:13;99289.53;;;8.63;100.00
51849;BME280;38952;51.090;-1.832;2024-02-21T10:56:33;99274.88;;;8.59;100.00
51849;BME280;38952;51.090;-1.832;2024-02-21T10:59:05;99254.38;;;8.61;100.00
51849;BME280;38952;51.090;-1.832;2024-02-21T11:01:31;99261.19;;;8.64;100.00
51849;BME280;38952;51.090;-1.832;2024-02-21T11:04:01;99257.63;;;8.68;100.00
51849;BME280;38952;51.090;-1.832;2024-02-21T11:06:27;99246.41;;;8.75;100.00
51849;BME280;38952;51.090;-1.832;2024-02-21T11:09:06;99230.06;;;8.75;100.00
51849;BME280;38952;51.090;-1.832;2024-02-21T11:11:37;99261.69;;;8.76;100.00
51849;BME280;38952;51.090;-1.832;2024-02-21T11:14:11;99248.59;;;8.73;100.00
51849;BME280;38952;51.090;-1.832;2024-02-21T11:16:37;99233.28;;;8.82;100.00
51849;BME280;38952;51.090;-1.832;2024-02-21T11:19:07;99230.56;;;8.82;100.00
51849;BME280;38952;51.090;-1.832;2024-02-21T11:21:37;99210.91;;;8.85;100.00
51849;BME280;38952;51.090;-1.832;2024-02-21T11:24:04;99214.69;;;8.89;100.00
51849;BME280;38952;51.090;-1.832;2024-02-21T11:26:30;99193.41;;;8.91;100.00
51849;BME280;38952;51.090;-1.832;2024-02-21T11:29:00;99196.63;;;8.99;100.00
51849;BME280;38952;51.090;-1.832;2024-02-21T11:31:38;99223.31;;;9.02;100.00
51849;BME280;38952;51.090;-1.832;2024-02-21T11:34:04;99172.59;;;9.01;100.00
51849;BME280;38952;51.090;-1.832;2024-02-21T11:36:30;99176.91;;;9.07;100.00
51849;BME280;38952;51.090;-1.832;2024-02-21T11:39:03;99155.44;;;9.00;100.00
51849;BME280;38952;51.090;-1.832;2024-02-21T11:41:29;99152.91;;;9.09;100.00
51849;BME280;38952;51.090;-1.832;2024-02-21T11:43:55;99152.91;;;9.09;100.00
51849;BME280;38952;51.090;-1.832;2024-02-21T11:46:21;99140.34;;;9.08;100.00
51849;BME280;38952;51.090;-1.832;2024-02-21T11:48:46;99126.44;;;9.09;100.00
51849;BME280;38952;51.090;-1.832;2024-02-21T11:51:25;99137.81;;;9.17;100.00
51849;BME280;38952;51.090;-1.832;2024-02-21T11:53:52;99115.69;;;9.18;100.00
51849;BME280;38952;51.090;-1.832;2024-02-21T11:56:18;99127.97;;;9.21;100.00
51849;BME280;38952;51.090;-1.832;2024-02-21T11:58:46;99094.94;;;9.22;100.00
51849;BME280;38952;51.090;-1.832;2024-02-21T12:01:11;99080.09;;;9.34;100.00
51849;BME280;38952;51.090;-1.832;2024-02-21T12:03:37;99081.00;;;9.48;100.00
51849;BME280;38952;51.090;-1.832;2024-02-21T12:06:03;99069.00;;;9.49;100.00
51849;BME280;38952;51.090;-1.832;2024-02-21T12:08:40;99076.66;;;9.47;100.00
51849;BME280;38952;51.090;-1.832;2024-02-21T12:11:22;99055.34;;;9.49;100.00
51849;BME280;38952;51.090;-1.832;2024-02-21T12:14:08;99041.63;;;9.54;100.00
51849;BME280;38952;51.090;-1.832;2024-02-21T12:16:35;99042.72;;;9.53;100.00
51849;BME280;38952;51.090;-1.832;2024-02-21T12:19:03;99043.56;;;9.54;100.00
51849;BME280;38952;51.090;-1.832;2024-02-21T12:21:33;99032.94;;;9.52;100.00
51849;BME280;38952;51.090;-1.832;2024-02-21T12:24:31;99035.06;;;9.55;100.00
51849;BME280;38952;51.090;-1.832;2024-02-21T12:26:57;99020.44;;;9.46;100.00
51849;BME280;38952;51.090;-1.832;2024-02-21T12:29:25;99029.09;;;9.53;100.00
51849;BME280;38952;51.090;-1.832;2024-02-21T12:31:51;98997.47;;;9.52;100.00
51849;BME280;38952;51.090;-1.832;2024-02-21T12:34:17;98980.63;;;9.45;100.00
51849;BME280;38952;51.090;-1.832;2024-02-21T12:36:46;98997.53;;;9.66;100.00
51849;BME280;38952;51.090;-1.832;2024-02-21T12:39:15;98996.34;;;9.72;100.00
51849;BME280;38952;51.090;-1.832;2024-02-21T12:41:55;98949.38;;;9.56;100.00
51849;BME280;38952;51.090;-1.832;2024-02-21T13:39:08;98843.41;;;10.52;100.00
51849;BME280;38952;51.090;-1.832;2024-02-21T13:41:41;98828.44;;;10.63;100.00
51849;BME280;38952;51.090;-1.832;2024-02-21T13:44:07;98828.94;;;10.65;100.00
51849;BME280;38952;51.090;-1.832;2024-02-21T13:46:34;98793.50;;;10.60;100.00
51849;BME280;38952;51.090;-1.832;2024-02-21T13:49:04;98815.13;;;10.85;100.00
51849;BME280;38952;51.090;-1.832;2024-02-21T13:51:32;98784.97;;;10.76;100.00
51849;BME280;38952;51.090;-1.832;2024-02-21T13:53:57;98813.00;;;10.81;100.00
51849;BME280;38952;51.090;-1.832;2024-02-21T13:56:24;98802.91;;;10.82;100.00
51849;BME280;38952;51.090;-1.832;2024-02-21T13:58:50;98804.88;;;10.90;100.00
51849;BME280;38952;51.090;-1.832;2024-02-21T14:01:15;98789.09;;;10.87;100.00
51849;BME280;38952;51.090;-1.832;2024-02-21T14:03:40;98795.56;;;10.91;100.00
51849;BME280;38952;51.090;-1.832;2024-02-21T14:06:06;98803.06;;;10.99;100.00
51849;BME280;38952;51.090;-1.832;2024-02-21T14:08:31;98779.41;;;11.04;100.00
51849;BME280;38952;51.090;-1.832;2024-02-21T14:10:59;98784.56;;;11.05;100.00
51849;BME280;38952;51.090;-1.832;2024-02-21T14:13:25;98792.47;;;11.07;100.00
51849;BME280;38952;51.090;-1.832;2024-02-21T14:15:51;98772.66;;;11.01;100.00
51849;BME280;38952;51.090;-1.832;2024-02-21T14:18:16;98799.47;;;11.13;100.00
51849;BME280;38952;51.090;-1.832;2024-02-21T14:20:43;98769.22;;;11.18;100.00
51849;BME280;38952;51.090;-1.832;2024-02-21T14:23:08;98757.97;;;11.20;100.00
51849;BME280;38952;51.090;-1.832;2024-02-21T14:25:34;98754.94;;;11.21;100.00
51849;BME280;38952;51.090;-1.832;2024-02-21T14:27:59;98760.91;;;11.23;100.00